Pagrindinis puslapis
METAR-TAF:

METAR-TAF

Oro uostai :

Pensakola, Florida, Jungtinės Amerikos Valstijos

platuma: 30-21-22N, ilguma: 087-19-24W, Aukštis: 9 m

Dabartinis oras

Ataskaita buvo paskelbta 44 minutes, ne 22:56 UTC
Vėjas 9 kt iš Šiaurės
Temperatūra 19°C
Drėgmė 32%
Slėgis 1018 hPa
Matomumas: 16.1 km
Giedras dangus

METAR: KNPA 062256Z AUTO 35009KT 10SM CLR 19/02 A3007 RMK AO2 SLP183 T01940022 $

Laikas: 17:40 (23:40 UTC)

Prognozė

Prognozė galioja nuo 06 metu 23 UTC su 07 metu 23 UTC
Vėjas 8 kt iš Šiaurės
Mažai debesys ne aukštis 5000 ft
Tapsmas
nuo 07 metu 13 UTC su 07 metu 15 UTC
Vėjas 8 kt iš Šiaurės Rytų
Giedras dangus

TAF: KNPA 0623/0723 35008KT FEW050 QNH3003INS BECMG 0713/0715 05008KT SKC QNH3027INS T06/0711Z T18/0720Z FN00231

Orai ataskaitas ir orų prognozės (METAR, TAF).

turimą stotys yra geltonos ir raudonos taškus žemėlapyje.

Perkelti pele per norėdami pamatyti stoties vardą.

Tada spustelėkite, norėdami matyti oro stebėjimo ir prognozės.

Norėdami pakeisti žemėlapį: spustelėkite ant žalios mygtukų su juodo kryžiaus žemyn,; žalią mygtuką su brūkšneliu, jei norite nutolinti; arba žalių rodyklių gretimoms žemėlapius.


METAR-TAF: